sensor_id;sensor_type;location;lat;lon;timestamp;P1;durP1;ratioP1;P2;durP2;ratioP2
583;SDS011;27024;54.068;12.116;2023-05-07T00:01:52;9.45;;;4.90;;
583;SDS011;27024;54.068;12.116;2023-05-07T00:04:19;9.30;;;4.50;;
583;SDS011;27024;54.068;12.116;2023-05-07T00:06:47;10.35;;;4.82;;
583;SDS011;27024;54.068;12.116;2023-05-07T00:09:14;10.30;;;4.88;;
583;SDS011;27024;54.068;12.116;2023-05-07T00:11:43;8.50;;;4.50;;
583;SDS011;27024;54.068;12.116;2023-05-07T00:14:10;8.77;;;4.43;;
583;SDS011;27024;54.068;12.116;2023-05-07T00:16:37;8.13;;;4.78;;
583;SDS011;27024;54.068;12.116;2023-05-07T00:19:05;11.18;;;4.57;;
583;SDS011;27024;54.068;12.116;2023-05-07T00:21:32;8.90;;;4.30;;
583;SDS011;27024;54.068;12.116;2023-05-07T00:23:59;7.85;;;4.60;;
583;SDS011;27024;54.068;12.116;2023-05-07T00:26:26;10.35;;;5.10;;
583;SDS011;27024;54.068;12.116;2023-05-07T00:28:53;10.10;;;4.72;;
583;SDS011;27024;54.068;12.116;2023-05-07T00:31:21;8.60;;;4.40;;
583;SDS011;27024;54.068;12.116;2023-05-07T00:33:48;8.75;;;3.97;;
583;SDS011;27024;54.068;12.116;2023-05-07T00:36:15;10.15;;;4.97;;
583;SDS011;27024;54.068;12.116;2023-05-07T00:38:42;10.27;;;4.45;;
583;SDS011;27024;54.068;12.116;2023-05-07T00:41:09;12.38;;;4.38;;
583;SDS011;27024;54.068;12.116;2023-05-07T00:43:36;11.30;;;4.55;;
583;SDS011;27024;54.068;12.116;2023-05-07T00:46:04;11.85;;;4.30;;
583;SDS011;27024;54.068;12.116;2023-05-07T00:48:31;7.50;;;4.15;;
583;SDS011;27024;54.068;12.116;2023-05-07T00:50:59;9.88;;;5.30;;
583;SDS011;27024;54.068;12.116;2023-05-07T00:53:31;8.90;;;4.53;;
583;SDS011;27024;54.068;12.116;2023-05-07T00:56:00;10.30;;;4.13;;
583;SDS011;27024;54.068;12.116;2023-05-07T00:58:28;8.02;;;4.60;;
583;SDS011;27024;54.068;12.116;2023-05-07T01:00:56;9.73;;;4.65;;
583;SDS011;27024;54.068;12.116;2023-05-07T01:03:25;8.48;;;4.43;;
583;SDS011;27024;54.068;12.116;2023-05-07T01:05:52;8.00;;;3.97;;
583;SDS011;27024;54.068;12.116;2023-05-07T01:08:22;10.07;;;4.75;;
583;SDS011;27024;54.068;12.116;2023-05-07T01:10:49;7.32;;;4.30;;
583;SDS011;27024;54.068;12.116;2023-05-07T01:13:17;8.75;;;4.22;;
583;SDS011;27024;54.068;12.116;2023-05-07T01:15:45;8.93;;;4.68;;
583;SDS011;27024;54.068;12.116;2023-05-07T01:18:12;7.78;;;4.53;;
583;SDS011;27024;54.068;12.116;2023-05-07T01:20:40;9.88;;;4.35;;
583;SDS011;27024;54.068;12.116;2023-05-07T01:23:07;9.48;;;4.50;;
583;SDS011;27024;54.068;12.116;2023-05-07T01:25:37;9.07;;;4.47;;
583;SDS011;27024;54.068;12.116;2023-05-07T01:28:04;8.82;;;4.60;;
583;SDS011;27024;54.068;12.116;2023-05-07T01:30:33;10.23;;;4.30;;
583;SDS011;27024;54.068;12.116;2023-05-07T01:35:32;12.27;;;4.82;;
583;SDS011;27024;54.068;12.116;2023-05-07T01:38:02;7.40;;;4.60;;
583;SDS011;27024;54.068;12.116;2023-05-07T01:40:32;12.43;;;5.03;;
583;SDS011;27024;54.068;12.116;2023-05-07T01:43:01;9.82;;;4.53;;
583;SDS011;27024;54.068;12.116;2023-05-07T01:45:30;10.48;;;4.60;;
583;SDS011;27024;54.068;12.116;2023-05-07T01:47:58;10.68;;;5.40;;
583;SDS011;27024;54.068;12.116;2023-05-07T01:50:26;9.70;;;4.80;;
583;SDS011;27024;54.068;12.116;2023-05-07T01:52:54;9.23;;;4.82;;
583;SDS011;27024;54.068;12.116;2023-05-07T01:55:21;13.20;;;5.28;;
583;SDS011;27024;54.068;12.116;2023-05-07T01:57:49;10.13;;;4.70;;
583;SDS011;27024;54.068;12.116;2023-05-07T02:00:16;11.02;;;4.53;;
583;SDS011;27024;54.068;12.116;2023-05-07T02:02:44;8.40;;;4.30;;
583;SDS011;27024;54.068;12.116;2023-05-07T02:05:11;8.27;;;4.88;;
583;SDS011;27024;54.068;12.116;2023-05-07T02:07:38;9.07;;;4.53;;
583;SDS011;27024;54.068;12.116;2023-05-07T02:10:06;10.70;;;4.40;;
583;SDS011;27024;54.068;12.116;2023-05-07T02:12:33;10.43;;;5.03;;
583;SDS011;27024;54.068;12.116;2023-05-07T02:15:01;11.70;;;4.40;;
583;SDS011;27024;54.068;12.116;2023-05-07T02:17:29;11.45;;;5.03;;
583;SDS011;27024;54.068;12.116;2023-05-07T02:19:58;9.90;;;4.80;;
583;SDS011;27024;54.068;12.116;2023-05-07T02:22:26;10.10;;;4.55;;
583;SDS011;27024;54.068;12.116;2023-05-07T02:24:52;8.48;;;4.85;;
583;SDS011;27024;54.068;12.116;2023-05-07T02:27:20;10.85;;;4.50;;
583;SDS011;27024;54.068;12.116;2023-05-07T02:29:47;10.32;;;4.97;;
583;SDS011;27024;54.068;12.116;2023-05-07T02:32:14;11.23;;;4.75;;
583;SDS011;27024;54.068;12.116;2023-05-07T02:34:41;8.88;;;5.30;;
583;SDS011;27024;54.068;12.116;2023-05-07T02:37:08;12.80;;;4.82;;
583;SDS011;27024;54.068;12.116;2023-05-07T02:39:35;9.35;;;4.20;;
583;SDS011;27024;54.068;12.116;2023-05-07T02:42:03;12.75;;;5.15;;
583;SDS011;27024;54.068;12.116;2023-05-07T02:44:30;11.02;;;5.07;;
583;SDS011;27024;54.068;12.116;2023-05-07T02:46:57;8.70;;;5.35;;
583;SDS011;27024;54.068;12.116;2023-05-07T02:49:25;15.38;;;5.57;;
583;SDS011;27024;54.068;12.116;2023-05-07T02:51:52;10.70;;;4.78;;
583;SDS011;27024;54.068;12.116;2023-05-07T02:54:19;8.73;;;5.10;;
583;SDS011;27024;54.068;12.116;2023-05-07T02:56:46;10.50;;;5.07;;
583;SDS011;27024;54.068;12.116;2023-05-07T02:59:13;11.02;;;5.63;;
583;SDS011;27024;54.068;12.116;2023-05-07T03:01:40;8.98;;;4.32;;
583;SDS011;27024;54.068;12.116;2023-05-07T03:04:10;12.35;;;5.10;;
583;SDS011;27024;54.068;12.116;2023-05-07T03:06:38;10.13;;;4.70;;
583;SDS011;27024;54.068;12.116;2023-05-07T03:09:05;11.82;;;4.68;;
583;SDS011;27024;54.068;12.116;2023-05-07T03:11:32;13.00;;;4.55;;
583;SDS011;27024;54.068;12.116;2023-05-07T03:13:59;12.68;;;5.03;;
583;SDS011;27024;54.068;12.116;2023-05-07T03:16:27;9.52;;;4.60;;
583;SDS011;27024;54.068;12.116;2023-05-07T03:18:54;11.45;;;4.20;;
583;SDS011;27024;54.068;12.116;2023-05-07T03:21:21;11.90;;;4.95;;
583;SDS011;27024;54.068;12.116;2023-05-07T03:23:48;13.25;;;5.18;;
583;SDS011;27024;54.068;12.116;2023-05-07T03:26:15;8.15;;;4.00;;
583;SDS011;27024;54.068;12.116;2023-05-07T03:28:43;9.07;;;4.10;;
583;SDS011;27024;54.068;12.116;2023-05-07T03:31:10;10.13;;;4.45;;
583;SDS011;27024;54.068;12.116;2023-05-07T03:33:39;9.57;;;4.72;;
583;SDS011;27024;54.068;12.116;2023-05-07T03:36:20;8.32;;;4.85;;
583;SDS011;27024;54.068;12.116;2023-05-07T03:38:47;8.63;;;4.63;;
583;SDS011;27024;54.068;12.116;2023-05-07T03:41:15;9.02;;;4.40;;
583;SDS011;27024;54.068;12.116;2023-05-07T03:43:42;9.93;;;4.72;;
583;SDS011;27024;54.068;12.116;2023-05-07T03:46:10;10.18;;;4.10;;
583;SDS011;27024;54.068;12.116;2023-05-07T03:48:36;7.82;;;4.43;;
583;SDS011;27024;54.068;12.116;2023-05-07T03:51:04;11.43;;;5.05;;
583;SDS011;27024;54.068;12.116;2023-05-07T03:53:31;6.82;;;3.78;;
583;SDS011;27024;54.068;12.116;2023-05-07T03:55:58;10.15;;;4.25;;
583;SDS011;27024;54.068;12.116;2023-05-07T03:58:26;7.88;;;4.20;;
583;SDS011;27024;54.068;12.116;2023-05-07T04:00:53;8.93;;;4.70;;
583;SDS011;27024;54.068;12.116;2023-05-07T04:03:20;10.32;;;4.65;;
583;SDS011;27024;54.068;12.116;2023-05-07T04:05:47;8.23;;;4.63;;
583;SDS011;27024;54.068;12.116;2023-05-07T04:08:14;9.07;;;4.55;;
583;SDS011;27024;54.068;12.116;2023-05-07T04:10:42;10.52;;;4.40;;
583;SDS011;27024;54.068;12.116;2023-05-07T04:13:08;11.23;;;4.30;;
583;SDS011;27024;54.068;12.116;2023-05-07T04:15:36;12.10;;;5.60;;
583;SDS011;27024;54.068;12.116;2023-05-07T04:18:03;11.23;;;4.32;;
583;SDS011;27024;54.068;12.116;2023-05-07T04:20:30;8.88;;;4.05;;
583;SDS011;27024;54.068;12.116;2023-05-07T04:23:01;8.77;;;4.10;;
583;SDS011;27024;54.068;12.116;2023-05-07T04:25:28;9.63;;;4.93;;
583;SDS011;27024;54.068;12.116;2023-05-07T04:27:56;9.35;;;4.32;;
583;SDS011;27024;54.068;12.116;2023-05-07T04:30:24;11.23;;;4.75;;
583;SDS011;27024;54.068;12.116;2023-05-07T04:32:51;11.82;;;4.72;;
583;SDS011;27024;54.068;12.116;2023-05-07T04:35:19;9.05;;;3.83;;
583;SDS011;27024;54.068;12.116;2023-05-07T04:37:46;8.02;;;4.35;;
583;SDS011;27024;54.068;12.116;2023-05-07T04:40:13;7.35;;;5.03;;
583;SDS011;27024;54.068;12.116;2023-05-07T04:42:40;9.68;;;5.20;;
583;SDS011;27024;54.068;12.116;2023-05-07T04:45:07;10.15;;;4.78;;
583;SDS011;27024;54.068;12.116;2023-05-07T04:47:37;12.55;;;5.18;;
583;SDS011;27024;54.068;12.116;2023-05-07T04:50:04;9.32;;;4.18;;
583;SDS011;27024;54.068;12.116;2023-05-07T04:52:33;14.27;;;4.35;;
583;SDS011;27024;54.068;12.116;2023-05-07T04:55:00;9.70;;;4.90;;
583;SDS011;27024;54.068;12.116;2023-05-07T04:57:27;9.70;;;4.45;;
583;SDS011;27024;54.068;12.116;2023-05-07T04:59:55;8.50;;;4.07;;
583;SDS011;27024;54.068;12.116;2023-05-07T05:02:22;8.27;;;5.05;;
583;SDS011;27024;54.068;12.116;2023-05-07T05:04:49;10.25;;;4.35;;
583;SDS011;27024;54.068;12.116;2023-05-07T05:07:16;10.55;;;4.07;;
583;SDS011;27024;54.068;12.116;2023-05-07T05:09:43;9.55;;;4.82;;
583;SDS011;27024;54.068;12.116;2023-05-07T05:12:11;11.32;;;4.93;;
583;SDS011;27024;54.068;12.116;2023-05-07T05:14:38;10.23;;;4.50;;
583;SDS011;27024;54.068;12.116;2023-05-07T05:17:05;7.78;;;4.32;;
583;SDS011;27024;54.068;12.116;2023-05-07T05:19:33;7.63;;;4.72;;
583;SDS011;27024;54.068;12.116;2023-05-07T05:22:01;7.72;;;3.90;;
583;SDS011;27024;54.068;12.116;2023-05-07T05:24:30;9.70;;;4.80;;
583;SDS011;27024;54.068;12.116;2023-05-07T05:26:57;9.65;;;4.40;;
583;SDS011;27024;54.068;12.116;2023-05-07T05:29:28;7.93;;;4.47;;
583;SDS011;27024;54.068;12.116;2023-05-07T05:31:55;8.57;;;4.43;;
583;SDS011;27024;54.068;12.116;2023-05-07T05:34:22;10.57;;;4.95;;
583;SDS011;27024;54.068;12.116;2023-05-07T05:36:50;11.63;;;5.28;;
583;SDS011;27024;54.068;12.116;2023-05-07T05:39:17;10.68;;;4.80;;
583;SDS011;27024;54.068;12.116;2023-05-07T05:41:44;10.95;;;4.63;;
583;SDS011;27024;54.068;12.116;2023-05-07T05:44:11;7.85;;;3.88;;
583;SDS011;27024;54.068;12.116;2023-05-07T05:46:38;8.18;;;4.65;;
583;SDS011;27024;54.068;12.116;2023-05-07T05:49:05;8.88;;;4.65;;
583;SDS011;27024;54.068;12.116;2023-05-07T05:51:32;7.72;;;4.38;;
583;SDS011;27024;54.068;12.116;2023-05-07T05:53:59;8.45;;;4.40;;
583;SDS011;27024;54.068;12.116;2023-05-07T05:56:26;9.85;;;4.82;;
583;SDS011;27024;54.068;12.116;2023-05-07T05:58:53;8.63;;;4.70;;
583;SDS011;27024;54.068;12.116;2023-05-07T06:01:21;7.03;;;4.30;;
583;SDS011;27024;54.068;12.116;2023-05-07T06:03:48;8.30;;;4.85;;
583;SDS011;27024;54.068;12.116;2023-05-07T06:06:15;6.60;;;4.40;;
583;SDS011;27024;54.068;12.116;2023-05-07T06:08:43;8.45;;;4.88;;
583;SDS011;27024;54.068;12.116;2023-05-07T06:11:10;8.20;;;5.07;;
583;SDS011;27024;54.068;12.116;2023-05-07T06:13:37;8.65;;;4.50;;
583;SDS011;27024;54.068;12.116;2023-05-07T06:16:04;7.10;;;4.57;;
583;SDS011;27024;54.068;12.116;2023-05-07T06:18:31;10.55;;;4.55;;
583;SDS011;27024;54.068;12.116;2023-05-07T06:20:59;7.55;;;4.03;;
583;SDS011;27024;54.068;12.116;2023-05-07T06:23:26;7.88;;;4.45;;
583;SDS011;27024;54.068;12.116;2023-05-07T06:25:53;9.05;;;4.95;;
583;SDS011;27024;54.068;12.116;2023-05-07T06:28:20;7.20;;;4.00;;
583;SDS011;27024;54.068;12.116;2023-05-07T06:30:47;7.45;;;3.95;;
583;SDS011;27024;54.068;12.116;2023-05-07T06:33:16;6.53;;;4.18;;
583;SDS011;27024;54.068;12.116;2023-05-07T06:35:43;9.15;;;4.65;;
583;SDS011;27024;54.068;12.116;2023-05-07T06:38:11;7.60;;;4.95;;
583;SDS011;27024;54.068;12.116;2023-05-07T06:40:38;6.72;;;4.70;;
583;SDS011;27024;54.068;12.116;2023-05-07T06:43:06;7.07;;;3.95;;
583;SDS011;27024;54.068;12.116;2023-05-07T06:45:33;7.13;;;4.53;;
583;SDS011;27024;54.068;12.116;2023-05-07T06:48:00;8.07;;;3.65;;
583;SDS011;27024;54.068;12.116;2023-05-07T06:50:27;7.55;;;3.97;;
583;SDS011;27024;54.068;12.116;2023-05-07T06:52:54;5.45;;;4.40;;
583;SDS011;27024;54.068;12.116;2023-05-07T06:55:21;7.60;;;4.45;;
583;SDS011;27024;54.068;12.116;2023-05-07T06:57:48;6.10;;;3.97;;
583;SDS011;27024;54.068;12.116;2023-05-07T07:00:16;6.15;;;4.38;;
583;SDS011;27024;54.068;12.116;2023-05-07T07:02:43;6.40;;;3.72;;
583;SDS011;27024;54.068;12.116;2023-05-07T07:05:11;8.65;;;4.00;;
583;SDS011;27024;54.068;12.116;2023-05-07T07:07:38;5.20;;;3.70;;
583;SDS011;27024;54.068;12.116;2023-05-07T07:10:05;7.18;;;4.07;;
583;SDS011;27024;54.068;12.116;2023-05-07T07:12:34;5.68;;;3.38;;
583;SDS011;27024;54.068;12.116;2023-05-07T07:15:01;5.47;;;4.05;;
583;SDS011;27024;54.068;12.116;2023-05-07T07:17:29;7.22;;;3.80;;
583;SDS011;27024;54.068;12.116;2023-05-07T07:19:56;4.88;;;3.47;;
583;SDS011;27024;54.068;12.116;2023-05-07T07:22:23;4.18;;;3.30;;
583;SDS011;27024;54.068;12.116;2023-05-07T07:24:51;4.60;;;3.15;;
583;SDS011;27024;54.068;12.116;2023-05-07T07:27:18;4.80;;;3.20;;
583;SDS011;27024;54.068;12.116;2023-05-07T07:29:45;6.75;;;2.60;;
583;SDS011;27024;54.068;12.116;2023-05-07T07:32:12;5.43;;;2.58;;
583;SDS011;27024;54.068;12.116;2023-05-07T07:34:40;5.20;;;2.38;;
583;SDS011;27024;54.068;12.116;2023-05-07T07:37:07;6.35;;;2.58;;
583;SDS011;27024;54.068;12.116;2023-05-07T07:39:34;3.35;;;2.70;;
583;SDS011;27024;54.068;12.116;2023-05-07T07:42:04;3.88;;;2.58;;
583;SDS011;27024;54.068;12.116;2023-05-07T07:44:32;3.90;;;2.55;;
583;SDS011;27024;54.068;12.116;2023-05-07T07:46:59;5.82;;;2.83;;
583;SDS011;27024;54.068;12.116;2023-05-07T07:49:26;4.25;;;2.15;;
583;SDS011;27024;54.068;12.116;2023-05-07T07:51:54;5.07;;;2.90;;
583;SDS011;27024;54.068;12.116;2023-05-07T07:54:21;3.72;;;2.42;;
583;SDS011;27024;54.068;12.116;2023-05-07T07:56:48;5.95;;;2.25;;
583;SDS011;27024;54.068;12.116;2023-05-07T07:59:16;4.80;;;2.67;;
583;SDS011;27024;54.068;12.116;2023-05-07T08:01:45;4.78;;;2.38;;
583;SDS011;27024;54.068;12.116;2023-05-07T08:04:15;3.92;;;2.63;;
583;SDS011;27024;54.068;12.116;2023-05-07T08:06:42;5.13;;;2.35;;
583;SDS011;27024;54.068;12.116;2023-05-07T08:09:09;5.78;;;2.83;;
583;SDS011;27024;54.068;12.116;2023-05-07T08:11:36;5.13;;;3.00;;
583;SDS011;27024;54.068;12.116;2023-05-07T08:14:03;4.18;;;2.95;;
583;SDS011;27024;54.068;12.116;2023-05-07T08:16:31;4.50;;;2.72;;
583;SDS011;27024;54.068;12.116;2023-05-07T08:18:59;4.38;;;2.50;;
583;SDS011;27024;54.068;12.116;2023-05-07T08:21:26;5.75;;;3.20;;
583;SDS011;27024;54.068;12.116;2023-05-07T08:23:53;7.07;;;3.25;;
583;SDS011;27024;54.068;12.116;2023-05-07T08:26:21;5.18;;;3.00;;
583;SDS011;27024;54.068;12.116;2023-05-07T08:28:48;4.75;;;2.60;;
583;SDS011;27024;54.068;12.116;2023-05-07T08:31:16;6.82;;;3.25;;
583;SDS011;27024;54.068;12.116;2023-05-07T08:33:43;5.03;;;2.90;;
583;SDS011;27024;54.068;12.116;2023-05-07T08:36:10;6.55;;;3.55;;
583;SDS011;27024;54.068;12.116;2023-05-07T08:38:38;5.30;;;2.85;;
583;SDS011;27024;54.068;12.116;2023-05-07T08:41:08;5.43;;;2.83;;
583;SDS011;27024;54.068;12.116;2023-05-07T08:43:37;5.18;;;2.88;;
583;SDS011;27024;54.068;12.116;2023-05-07T08:46:08;5.43;;;2.70;;
583;SDS011;27024;54.068;12.116;2023-05-07T08:48:38;5.30;;;2.50;;
583;SDS011;27024;54.068;12.116;2023-05-07T08:51:08;5.05;;;2.97;;
583;SDS011;27024;54.068;12.116;2023-05-07T08:53:35;4.38;;;2.95;;
583;SDS011;27024;54.068;12.116;2023-05-07T08:56:05;6.30;;;2.33;;
583;SDS011;27024;54.068;12.116;2023-05-07T08:58:35;6.35;;;3.15;;
583;SDS011;27024;54.068;12.116;2023-05-07T09:01:03;5.47;;;2.50;;
583;SDS011;27024;54.068;12.116;2023-05-07T09:03:39;5.53;;;2.65;;
583;SDS011;27024;54.068;12.116;2023-05-07T09:06:07;7.50;;;2.95;;
583;SDS011;27024;54.068;12.116;2023-05-07T09:08:35;3.85;;;2.60;;
583;SDS011;27024;54.068;12.116;2023-05-07T09:11:03;4.85;;;2.60;;
583;SDS011;27024;54.068;12.116;2023-05-07T09:13:30;5.68;;;3.00;;
583;SDS011;27024;54.068;12.116;2023-05-07T09:15:59;4.22;;;2.83;;
583;SDS011;27024;54.068;12.116;2023-05-07T09:18:43;5.22;;;2.67;;
583;SDS011;27024;54.068;12.116;2023-05-07T09:21:14;6.13;;;2.67;;
583;SDS011;27024;54.068;12.116;2023-05-07T09:23:42;6.70;;;2.83;;
583;SDS011;27024;54.068;12.116;2023-05-07T09:26:10;4.55;;;2.97;;
583;SDS011;27024;54.068;12.116;2023-05-07T09:28:39;4.72;;;2.25;;
583;SDS011;27024;54.068;12.116;2023-05-07T09:31:08;6.88;;;2.63;;
583;SDS011;27024;54.068;12.116;2023-05-07T09:33:37;5.22;;;3.33;;
583;SDS011;27024;54.068;12.116;2023-05-07T09:36:05;4.03;;;2.13;;
583;SDS011;27024;54.068;12.116;2023-05-07T09:38:35;4.05;;;1.95;;
583;SDS011;27024;54.068;12.116;2023-05-07T09:41:04;4.28;;;2.63;;
583;SDS011;27024;54.068;12.116;2023-05-07T09:43:39;6.60;;;2.75;;
583;SDS011;27024;54.068;12.116;2023-05-07T09:46:13;4.25;;;2.53;;
583;SDS011;27024;54.068;12.116;2023-05-07T09:48:43;3.80;;;2.20;;
583;SDS011;27024;54.068;12.116;2023-05-07T09:51:14;3.30;;;2.08;;
583;SDS011;27024;54.068;12.116;2023-05-07T09:53:48;4.40;;;2.40;;
583;SDS011;27024;54.068;12.116;2023-05-07T09:56:18;4.07;;;1.98;;
583;SDS011;27024;54.068;12.116;2023-05-07T09:58:47;5.18;;;2.63;;
583;SDS011;27024;54.068;12.116;2023-05-07T10:01:16;3.67;;;2.13;;
583;SDS011;27024;54.068;12.116;2023-05-07T10:03:46;4.15;;;2.20;;
583;SDS011;27024;54.068;12.116;2023-05-07T10:06:15;4.97;;;2.30;;
583;SDS011;27024;54.068;12.116;2023-05-07T10:08:44;3.47;;;1.90;;
583;SDS011;27024;54.068;12.116;2023-05-07T10:11:12;5.30;;;2.15;;
583;SDS011;27024;54.068;12.116;2023-05-07T10:13:42;4.82;;;1.90;;
583;SDS011;27024;54.068;12.116;2023-05-07T10:16:10;3.50;;;2.28;;
583;SDS011;27024;54.068;12.116;2023-05-07T10:18:37;5.18;;;2.15;;
583;SDS011;27024;54.068;12.116;2023-05-07T10:21:19;6.28;;;2.28;;
583;SDS011;27024;54.068;12.116;2023-05-07T10:23:49;3.45;;;1.90;;
583;SDS011;27024;54.068;12.116;2023-05-07T10:28:48;5.68;;;2.28;;
583;SDS011;27024;54.068;12.116;2023-05-07T10:33:51;5.22;;;2.50;;
583;SDS011;27024;54.068;12.116;2023-05-07T10:36:20;4.53;;;2.05;;
583;SDS011;27024;54.068;12.116;2023-05-07T10:38:49;3.78;;;2.35;;
583;SDS011;27024;54.068;12.116;2023-05-07T10:41:16;3.38;;;2.10;;
583;SDS011;27024;54.068;12.116;2023-05-07T10:43:45;3.30;;;2.33;;
583;SDS011;27024;54.068;12.116;2023-05-07T10:46:20;4.28;;;2.13;;
583;SDS011;27024;54.068;12.116;2023-05-07T10:51:27;6.22;;;2.83;;
583;SDS011;27024;54.068;12.116;2023-05-07T10:56:42;4.82;;;2.38;;
583;SDS011;27024;54.068;12.116;2023-05-07T10:59:29;4.00;;;2.55;;
583;SDS011;27024;54.068;12.116;2023-05-07T11:01:59;3.67;;;2.08;;
583;SDS011;27024;54.068;12.116;2023-05-07T11:04:30;3.08;;;2.20;;
583;SDS011;27024;54.068;12.116;2023-05-07T11:15:05;4.72;;;2.30;;
583;SDS011;27024;54.068;12.116;2023-05-07T11:17:33;4.40;;;2.20;;
583;SDS011;27024;54.068;12.116;2023-05-07T11:20:03;3.75;;;2.35;;
583;SDS011;27024;54.068;12.116;2023-05-07T11:25:02;4.10;;;2.50;;
583;SDS011;27024;54.068;12.116;2023-05-07T11:27:30;7.82;;;2.60;;
583;SDS011;27024;54.068;12.116;2023-05-07T11:29:57;4.60;;;2.85;;
583;SDS011;27024;54.068;12.116;2023-05-07T11:32:29;4.68;;;3.22;;
583;SDS011;27024;54.068;12.116;2023-05-07T11:34:58;5.18;;;3.03;;
583;SDS011;27024;54.068;12.116;2023-05-07T11:37:27;8.05;;;2.70;;
583;SDS011;27024;54.068;12.116;2023-05-07T11:40:03;4.18;;;3.08;;
583;SDS011;27024;54.068;12.116;2023-05-07T11:42:36;5.40;;;2.55;;
583;SDS011;27024;54.068;12.116;2023-05-07T11:45:05;5.07;;;2.95;;
583;SDS011;27024;54.068;12.116;2023-05-07T11:47:35;6.28;;;2.67;;
583;SDS011;27024;54.068;12.116;2023-05-07T11:50:03;6.60;;;3.33;;
583;SDS011;27024;54.068;12.116;2023-05-07T11:52:33;4.35;;;3.25;;
583;SDS011;27024;54.068;12.116;2023-05-07T11:55:00;3.72;;;2.85;;
583;SDS011;27024;54.068;12.116;2023-05-07T11:57:28;4.05;;;2.92;;
583;SDS011;27024;54.068;12.116;2023-05-07T11:59:56;4.43;;;2.97;;
583;SDS011;27024;54.068;12.116;2023-05-07T12:02:25;6.72;;;2.88;;
583;SDS011;27024;54.068;12.116;2023-05-07T12:04:53;5.22;;;3.00;;
583;SDS011;27024;54.068;12.116;2023-05-07T12:07:22;4.53;;;2.53;;
583;SDS011;27024;54.068;12.116;2023-05-07T12:09:50;4.10;;;2.85;;
583;SDS011;27024;54.068;12.116;2023-05-07T12:12:19;4.97;;;2.53;;
583;SDS011;27024;54.068;12.116;2023-05-07T12:14:46;3.97;;;2.67;;
583;SDS011;27024;54.068;12.116;2023-05-07T12:17:14;6.18;;;2.42;;
583;SDS011;27024;54.068;12.116;2023-05-07T12:19:42;3.78;;;2.53;;
583;SDS011;27024;54.068;12.116;2023-05-07T12:22:11;3.95;;;2.38;;
583;SDS011;27024;54.068;12.116;2023-05-07T12:24:49;4.93;;;2.30;;
583;SDS011;27024;54.068;12.116;2023-05-07T12:27:23;4.43;;;2.35;;
583;SDS011;27024;54.068;12.116;2023-05-07T12:29:51;6.97;;;2.72;;
583;SDS011;27024;54.068;12.116;2023-05-07T12:32:20;5.30;;;2.50;;
583;SDS011;27024;54.068;12.116;2023-05-07T12:34:51;4.00;;;2.30;;
583;SDS011;27024;54.068;12.116;2023-05-07T12:37:23;5.10;;;2.72;;
583;SDS011;27024;54.068;12.116;2023-05-07T12:40:08;3.83;;;2.65;;
583;SDS011;27024;54.068;12.116;2023-05-07T12:42:36;5.30;;;3.03;;
583;SDS011;27024;54.068;12.116;2023-05-07T12:45:11;5.55;;;2.55;;
583;SDS011;27024;54.068;12.116;2023-05-07T12:47:44;4.95;;;3.30;;
583;SDS011;27024;54.068;12.116;2023-05-07T12:50:15;4.63;;;2.15;;
583;SDS011;27024;54.068;12.116;2023-05-07T12:52:52;6.25;;;3.10;;
583;SDS011;27024;54.068;12.116;2023-05-07T12:55:19;7.45;;;2.20;;
583;SDS011;27024;54.068;12.116;2023-05-07T12:57:48;4.30;;;2.40;;
583;SDS011;27024;54.068;12.116;2023-05-07T13:02:45;4.93;;;3.20;;
583;SDS011;27024;54.068;12.116;2023-05-07T13:05:12;4.45;;;2.80;;
583;SDS011;27024;54.068;12.116;2023-05-07T13:07:40;4.57;;;3.20;;
583;SDS011;27024;54.068;12.116;2023-05-07T13:10:18;5.82;;;2.53;;
583;SDS011;27024;54.068;12.116;2023-05-07T13:12:45;4.88;;;3.67;;
583;SDS011;27024;54.068;12.116;2023-05-07T13:15:13;4.03;;;2.38;;
583;SDS011;27024;54.068;12.116;2023-05-07T13:17:40;4.18;;;2.40;;
583;SDS011;27024;54.068;12.116;2023-05-07T13:20:11;5.35;;;2.60;;
583;SDS011;27024;54.068;12.116;2023-05-07T13:22:39;4.07;;;2.70;;
583;SDS011;27024;54.068;12.116;2023-05-07T13:25:07;3.63;;;2.65;;
583;SDS011;27024;54.068;12.116;2023-05-07T13:27:35;4.55;;;2.45;;
583;SDS011;27024;54.068;12.116;2023-05-07T13:30:04;6.05;;;3.05;;
583;SDS011;27024;54.068;12.116;2023-05-07T13:32:34;4.88;;;2.65;;
583;SDS011;27024;54.068;12.116;2023-05-07T13:35:02;3.95;;;2.78;;
583;SDS011;27024;54.068;12.116;2023-05-07T13:37:30;5.28;;;2.30;;
583;SDS011;27024;54.068;12.116;2023-05-07T13:39:57;4.50;;;2.55;;
583;SDS011;27024;54.068;12.116;2023-05-07T13:42:24;4.38;;;2.35;;
583;SDS011;27024;54.068;12.116;2023-05-07T13:44:52;5.40;;;3.17;;
583;SDS011;27024;54.068;12.116;2023-05-07T13:47:19;5.25;;;2.47;;
583;SDS011;27024;54.068;12.116;2023-05-07T13:49:48;4.80;;;2.88;;
583;SDS011;27024;54.068;12.116;2023-05-07T13:52:18;3.40;;;2.47;;
583;SDS011;27024;54.068;12.116;2023-05-07T13:54:51;3.60;;;2.28;;
583;SDS011;27024;54.068;12.116;2023-05-07T13:57:19;4.65;;;3.20;;
583;SDS011;27024;54.068;12.116;2023-05-07T13:59:46;3.83;;;2.38;;
583;SDS011;27024;54.068;12.116;2023-05-07T14:02:14;4.82;;;2.45;;
583;SDS011;27024;54.068;12.116;2023-05-07T14:04:42;4.13;;;3.13;;
583;SDS011;27024;54.068;12.116;2023-05-07T14:07:09;4.50;;;2.30;;
583;SDS011;27024;54.068;12.116;2023-05-07T14:09:37;5.30;;;3.15;;
583;SDS011;27024;54.068;12.116;2023-05-07T14:12:04;4.38;;;2.72;;
583;SDS011;27024;54.068;12.116;2023-05-07T14:14:32;4.78;;;2.97;;
583;SDS011;27024;54.068;12.116;2023-05-07T14:17:00;3.72;;;1.88;;
583;SDS011;27024;54.068;12.116;2023-05-07T14:19:28;7.05;;;3.13;;
583;SDS011;27024;54.068;12.116;2023-05-07T14:21:56;4.30;;;2.40;;
583;SDS011;27024;54.068;12.116;2023-05-07T14:24:25;4.78;;;2.70;;
583;SDS011;27024;54.068;12.116;2023-05-07T14:27:04;4.15;;;2.67;;
583;SDS011;27024;54.068;12.116;2023-05-07T14:29:32;5.93;;;2.97;;
583;SDS011;27024;54.068;12.116;2023-05-07T14:31:59;4.88;;;2.45;;
583;SDS011;27024;54.068;12.116;2023-05-07T14:34:26;4.80;;;2.38;;
583;SDS011;27024;54.068;12.116;2023-05-07T14:36:53;3.60;;;2.58;;
583;SDS011;27024;54.068;12.116;2023-05-07T14:39:20;3.50;;;2.83;;
583;SDS011;27024;54.068;12.116;2023-05-07T14:41:47;5.50;;;2.70;;
583;SDS011;27024;54.068;12.116;2023-05-07T14:44:13;4.00;;;2.30;;
583;SDS011;27024;54.068;12.116;2023-05-07T14:46:40;3.83;;;1.98;;
583;SDS011;27024;54.068;12.116;2023-05-07T14:49:07;3.85;;;2.17;;
583;SDS011;27024;54.068;12.116;2023-05-07T14:51:46;3.30;;;2.08;;
583;SDS011;27024;54.068;12.116;2023-05-07T14:54:13;2.75;;;1.98;;
583;SDS011;27024;54.068;12.116;2023-05-07T14:56:41;2.30;;;1.83;;
583;SDS011;27024;54.068;12.116;2023-05-07T14:59:08;3.33;;;1.13;;
583;SDS011;27024;54.068;12.116;2023-05-07T15:01:35;4.30;;;2.15;;
583;SDS011;27024;54.068;12.116;2023-05-07T15:04:03;4.85;;;1.60;;
583;SDS011;27024;54.068;12.116;2023-05-07T15:06:31;3.25;;;2.25;;
583;SDS011;27024;54.068;12.116;2023-05-07T15:08:58;3.20;;;1.98;;
583;SDS011;27024;54.068;12.116;2023-05-07T15:11:25;4.35;;;1.45;;
583;SDS011;27024;54.068;12.116;2023-05-07T15:13:52;3.45;;;1.70;;
583;SDS011;27024;54.068;12.116;2023-05-07T15:16:19;2.83;;;2.15;;
583;SDS011;27024;54.068;12.116;2023-05-07T15:18:47;4.85;;;2.05;;
583;SDS011;27024;54.068;12.116;2023-05-07T15:21:14;4.78;;;2.45;;
583;SDS011;27024;54.068;12.116;2023-05-07T15:23:41;4.32;;;1.77;;
583;SDS011;27024;54.068;12.116;2023-05-07T15:26:08;3.03;;;1.65;;
583;SDS011;27024;54.068;12.116;2023-05-07T15:28:35;2.83;;;1.98;;
583;SDS011;27024;54.068;12.116;2023-05-07T15:31:01;2.75;;;1.60;;